Time;durP1;ratioP1;P1;durP2;ratioP2;P2;SDS_P1;SDS_P2;PMS_P1;PMS_P2;Temp;Humidity;BMP_temperature;BMP_pressure;BME280_temperature;BME280_humidity;BME280_pressure;Samples;Min_cycle;Max_cycle;Signal;HPM_P1;HPM_P2
2022/04/02 00:00:44;;;;;;;2.72;0.90;;;;;;;1.22;64.27;101564.97;2063962;28;44200;-71
2022/04/02 00:01:45;;;;;;;2.20;0.70;;;;;;;1.21;63.98;101555.31;2063822;28;37256;-71
2022/04/02 00:02:47;;;;;;;2.75;0.75;;;;;;;1.24;64.20;101560.63;2064199;28;45554;-71
2022/04/02 00:03:49;;;;;;;1.15;0.52;;;;;;;1.23;64.43;101562.41;2064674;28;20970;-71
2022/04/02 00:04:54;;;;;;;3.17;0.70;;;;;;;1.24;64.35;101565.91;2065199;28;20038;-71
2022/04/02 00:05:55;;;;;;;2.42;0.85;;;;;;;1.22;64.47;101564.97;2063423;28;46237;-71
2022/04/02 00:06:57;;;;;;;2.97;0.73;;;;;;;1.22;64.00;101559.72;2064336;28;43043;-71
2022/04/02 00:07:59;;;;;;;3.58;1.00;;;;;;;1.23;64.38;101566.78;2062907;28;44483;-71
2022/04/02 00:09:01;;;;;;;3.35;0.90;;;;;;;1.23;63.97;101564.16;2064037;28;43379;-71
2022/04/02 00:10:05;;;;;;;2.58;0.85;;;;;;;1.24;64.16;101560.63;2064098;28;41229;-71
2022/04/02 00:11:07;;;;;;;2.25;0.70;;;;;;;1.23;64.56;101561.50;2063345;28;43953;-71
2022/04/02 00:12:09;;;;;;;1.77;0.70;;;;;;;1.21;64.34;101552.66;2062886;28;43346;-71
2022/04/02 00:13:11;;;;;;;2.45;0.60;;;;;;;1.22;64.19;101546.53;2064463;28;45066;-71
2022/04/02 00:14:17;;;;;;;4.25;0.75;;;;;;;1.21;64.33;101563.22;2064682;28;20058;-71
2022/04/02 00:15:19;;;;;;;3.15;0.82;;;;;;;1.18;64.39;101563.13;2064493;28;42201;-71
2022/04/02 00:16:21;;;;;;;1.92;0.80;;;;;;;1.18;64.54;101560.50;2063749;28;45588;-71
2022/04/02 00:17:22;;;;;;;3.47;0.60;;;;;;;1.18;64.70;101560.50;2064381;28;45839;-71
2022/04/02 00:18:25;;;;;;;2.30;0.70;;;;;;;1.19;64.42;101562.28;2064754;28;20139;-71
2022/04/02 00:19:30;;;;;;;3.15;0.85;;;;;;;1.19;63.96;101562.28;2065072;28;20045;-71
2022/04/02 00:20:33;;;;;;;2.95;1.00;;;;;;;1.22;64.47;101562.34;2063696;28;44267;-71
2022/04/02 00:21:34;;;;;;;2.15;0.75;;;;;;;1.20;64.18;101561.41;2062903;28;45274;-72
2022/04/02 00:22:36;;;;;;;3.45;1.00;;;;;;;1.22;64.74;101560.63;2062743;28;45402;-71
2022/04/02 00:23:41;;;;;;;2.33;0.70;;;;;;;1.23;64.39;101558.88;2063108;28;45296;-71
2022/04/02 00:24:43;;;;;;;5.15;0.80;;;;;;;1.21;64.17;101561.47;2063366;28;45964;-71
2022/04/02 00:25:44;;;;;;;3.60;0.90;;;;;;;1.21;64.79;101558.84;2062891;28;42400;-70
2022/04/02 00:26:46;;;;;;;4.82;0.75;;;;;;;1.20;64.58;101558.78;2062534;28;44568;-71
2022/04/02 00:27:48;;;;;;;2.53;0.93;;;;;;;1.19;65.03;101564.94;2055854;28;20047;-71
2022/04/02 00:28:51;;;;;;;2.33;0.70;;;;;;;1.17;64.44;101556.97;2048244;28;20897;-71
2022/04/02 00:29:53;;;;;;;2.80;0.88;;;;;;;1.17;64.69;101556.06;2047634;28;46014;-71
2022/04/02 00:30:55;;;;;;;2.42;0.93;;;;;;;1.18;64.31;101568.41;2055214;28;42586;-71
2022/04/02 00:31:57;;;;;;;2.38;0.77;;;;;;;1.16;64.10;101560.44;2064894;28;20050;-71
2022/04/02 00:33:00;;;;;;;2.13;0.50;;;;;;;1.17;64.75;101561.34;2063795;28;20057;-71
2022/04/02 00:34:01;;;;;;;4.20;0.88;;;;;;;1.14;64.41;101565.69;2063353;28;43454;-71
2022/04/02 00:35:04;;;;;;;2.85;0.93;;;;;;;1.20;64.10;101564.94;2055900;28;20051;-72
2022/04/02 00:36:07;;;;;;;4.47;0.88;;;;;;;1.20;64.31;101564.06;2055328;28;44130;-71
2022/04/02 00:37:08;;;;;;;3.28;0.75;;;;;;;1.18;64.26;101563.13;2063716;28;20035;-71
2022/04/02 00:38:12;;;;;;;3.53;0.80;;;;;;;1.18;64.55;101563.13;2064081;28;26352;-71
2022/04/02 00:39:15;;;;;;;3.00;0.80;;;;;;;1.19;64.58;101559.66;2064053;28;20050;-71
2022/04/02 00:40:17;;;;;;;2.17;0.88;;;;;;;1.16;64.92;101560.44;2064184;28;43764;-71
2022/04/02 00:41:19;;;;;;;5.07;0.80;;;;;;;1.15;65.00;101563.97;2063504;28;44850;-71
2022/04/02 00:42:20;;;;;;;3.03;0.82;;;;;;;1.17;64.86;101566.59;2063639;28;20042;-71
2022/04/02 00:43:31;;;;;;;1.33;0.65;;;;;;;1.18;64.08;101560.50;2062396;28;44481;-71
2022/04/02 00:44:33;;;;;;;2.60;1.10;;;;;;;1.14;64.90;101565.69;2063986;28;35246;-71
2022/04/02 00:45:35;;;;;;;3.42;1.02;;;;;;;1.12;64.38;101562.13;2054799;28;45411;-69
2022/04/02 00:46:42;;;;;;;1.85;0.77;;;;;;;1.09;64.50;101564.66;2056242;28;21030;-71
2022/04/02 00:47:44;;;;;;;2.28;0.75;;;;;;;1.07;64.85;101558.47;2063226;28;45319;-71
2022/04/02 00:48:47;;;;;;;2.40;0.90;;;;;;;1.06;64.39;101564.63;2056030;28;20913;-71
2022/04/02 00:49:51;;;;;;;2.08;0.70;;;;;;;1.09;64.76;101563.78;2047072;28;44698;-70
2022/04/02 00:50:57;;;;;;;2.67;0.90;;;;;;;1.09;64.99;101569.94;2056678;28;20086;-71
2022/04/02 00:51:58;;;;;;;3.20;0.85;;;;;;;1.11;64.97;101565.63;2054924;28;32132;-71
2022/04/02 00:53:01;;;;;;;1.42;0.63;;;;;;;1.08;64.87;101562.91;2056397;28;20024;-71
2022/04/02 00:54:03;;;;;;;2.10;0.93;;;;;;;1.08;64.86;101562.91;2063793;28;20896;-70
2022/04/02 00:55:05;;;;;;;3.20;0.88;;;;;;;1.09;64.80;101569.94;2063127;28;44687;-71
2022/04/02 00:56:08;;;;;;;4.10;0.90;;;;;;;1.12;64.80;101564.75;2055428;28;20027;-71
2022/04/02 00:57:10;;;;;;;3.20;0.93;;;;;;;1.08;64.88;101576.09;2047681;28;21056;-71
2022/04/02 00:58:12;;;;;;;2.00;0.60;;;;;;;1.09;64.67;101569.94;2055886;28;20197;-71
2022/04/02 00:59:14;;;;;;;4.28;0.77;;;;;;;1.06;65.09;101574.25;2064857;28;20070;-71
2022/04/02 01:00:17;;;;;;;5.53;0.90;;;;;;;1.04;65.16;101576.88;2063446;28;20986;-71
2022/04/02 01:01:19;;;;;;;2.05;0.90;;;;;;;1.03;64.81;101559.25;2055798;28;20058;-71
2022/04/02 01:02:24;;;;;;;1.92;0.82;;;;;;;1.07;64.93;101566.38;2056006;28;20429;-71
2022/04/02 01:03:27;;;;;;;2.28;0.80;;;;;;;1.06;65.40;101568.97;2063684;28;20157;-71
2022/04/02 01:04:31;;;;;;;2.15;0.85;;;;;;;1.06;65.10;101574.25;2055327;28;20054;-71
2022/04/02 01:05:35;;;;;;;3.38;0.80;;;;;;;1.08;65.05;101572.56;2047918;28;20048;-71
2022/04/02 01:06:42;;;;;;;4.70;1.00;;;;;;;1.07;64.90;101576.94;2048849;28;20056;-72
2022/04/02 01:07:56;;;;;;;2.35;1.00;;;;;;;1.07;65.00;101570.78;2048303;28;21015;-71
2022/04/02 01:08:58;;;;;;;2.58;0.98;;;;;;;1.05;65.17;101577.75;2056510;28;44305;-72
2022/04/02 01:10:00;;;;;;;1.88;0.88;;;;;;;1.07;65.20;101569.00;2063440;28;20043;-71
2022/04/02 01:11:03;;;;;;;3.58;1.10;;;;;;;1.08;65.09;101569.94;2055944;28;20039;-71
2022/04/02 01:12:07;;;;;;;3.20;1.08;;;;;;;1.08;64.77;101569.94;2055732;28;20070;-71
2022/04/02 01:13:14;;;;;;;3.00;0.90;;;;;;;1.06;64.81;101566.34;2063668;28;20968;-71
2022/04/02 01:14:17;;;;;;;2.53;0.80;;;;;;;1.05;65.30;101575.13;2055526;28;20063;-71
2022/04/02 01:15:22;;;;;;;3.10;0.80;;;;;;;1.06;64.92;101576.88;2056362;28;20055;-71
2022/04/02 01:16:27;;;;;;;2.83;1.02;;;;;;;1.02;65.05;101564.47;2063503;28;20053;-70
2022/04/02 01:17:40;;;;;;;4.60;1.00;;;;;;;1.03;65.40;101575.06;2055906;28;20051;-71
2022/04/02 01:18:47;;;;;;;1.58;0.60;;;;;;;1.01;65.82;101579.41;2056899;28;20987;-71
2022/04/02 01:19:56;;;;;;;2.95;1.17;;;;;;;1.01;65.25;101576.78;2055368;28;20901;-71
2022/04/02 01:21:04;;;;;;;4.13;1.10;;;;;;;1.02;65.62;101578.53;2056156;28;20039;-71
2022/04/02 01:22:11;;;;;;;4.30;1.25;;;;;;;1.01;65.45;101584.69;2055372;28;20047;-71
2022/04/02 01:23:20;;;;;;;1.40;0.80;;;;;;;1.01;65.35;101579.41;2049223;28;20105;-71
2022/04/02 01:24:22;;;;;;;3.97;0.80;;;;;;;1.01;65.70;101584.69;2055422;28;40858;-71
2022/04/02 01:25:35;;;;;;;2.60;0.88;;;;;;;0.98;65.84;101576.69;2063821;28;20098;-71
2022/04/02 01:26:45;;;;;;;3.75;0.95;;;;;;;0.98;65.55;101581.97;2055687;28;20150;-71
2022/04/02 01:27:53;;;;;;;3.22;1.10;;;;;;;0.98;65.36;101576.69;2048917;28;20122;-71
2022/04/02 01:28:57;;;;;;;4.13;0.80;;;;;;;1.00;65.21;101588.16;2048887;28;20039;-70
2022/04/02 01:30:17;;;;;;;3.25;0.80;;;;;;;0.99;65.47;101582.84;2050033;28;20840;-71
2022/04/02 01:31:21;;;;;;;3.85;1.10;;;;;;;0.97;65.76;101585.47;2047344;28;20210;-71
2022/04/02 01:32:23;;;;;;;1.50;0.82;;;;;;;0.99;65.25;101582.84;2055340;28;45431;-71
2022/04/02 01:33:36;;;;;;;2.45;0.90;;;;;;;0.97;65.64;101579.28;2063465;28;20062;-71
2022/04/02 01:34:41;;;;;;;4.20;1.13;;;;;;;0.97;65.58;101579.28;2047704;28;20052;-71
2022/04/02 01:36:01;;;;;;;3.33;0.90;;;;;;;1.00;65.48;101580.25;2049881;28;20040;-71
2022/04/02 01:37:04;;;;;;;2.28;1.15;;;;;;;1.00;65.39;101584.66;2055527;28;20047;-70
2022/04/02 01:38:12;;;;;;;5.10;1.05;;;;;;;0.98;65.68;101581.97;2057211;28;20035;-71
2022/04/02 01:39:15;;;;;;;2.75;1.00;;;;;;;0.98;65.58;101584.59;2054734;28;37874;-71
2022/04/02 01:40:20;;;;;;;2.72;0.80;;;;;;;0.99;65.46;101577.56;2047526;28;20070;-71
2022/04/02 01:41:22;;;;;;;5.22;1.08;;;;;;;0.98;66.49;101578.44;2054911;28;43990;-71
2022/04/02 01:42:27;;;;;;;1.83;0.90;;;;;;;0.96;65.62;101581.03;2055653;28;20829;-71
2022/04/02 01:43:36;;;;;;;2.50;1.15;;;;;;;0.98;65.66;101581.97;2056823;28;20141;-71
2022/04/02 01:44:38;;;;;;;2.25;0.68;;;;;;;0.95;65.21;101580.16;2055937;28;20199;-72
2022/04/02 01:45:40;;;;;;;5.60;1.05;;;;;;;0.94;65.68;101575.72;2054987;28;31546;-71
2022/04/02 01:46:42;;;;;;;1.90;0.80;;;;;;;0.94;66.15;101574.84;2054938;28;20067;-71
2022/04/02 01:49:15;;;;;;;3.05;0.95;;;;;;;0.96;66.00;101583.66;2056566;28;20162;-71
2022/04/02 01:50:19;;;;;;;2.80;1.17;;;;;;;0.93;66.12;101579.22;2047677;28;20170;-71
2022/04/02 01:51:24;;;;;;;3.67;1.00;;;;;;;0.94;66.43;101588.00;2055599;28;20947;-71
2022/04/02 01:52:26;;;;;;;3.17;0.85;;;;;;;0.94;66.27;101586.25;2054658;28;20079;-71
2022/04/02 01:53:32;;;;;;;2.47;1.00;;;;;;;0.96;66.19;101581.03;2047304;28;20043;-71
2022/04/02 01:54:36;;;;;;;3.20;0.90;;;;;;;0.94;66.25;101582.75;2048242;28;20155;-71
2022/04/02 01:55:45;;;;;;;4.22;0.80;;;;;;;0.95;65.84;101590.69;2047033;28;20103;-71
2022/04/02 01:57:03;;;;;;;2.38;0.80;;;;;;;0.93;66.26;101584.50;2049783;28;20051;-71
2022/04/02 01:58:05;;;;;;;5.03;1.52;;;;;;;0.95;65.91;101587.16;2055226;28;20106;-71
2022/04/02 01:59:12;;;;;;;5.18;1.00;;;;;;;0.93;65.66;101587.13;2055751;28;20423;-71
2022/04/02 02:00:15;;;;;;;2.65;1.30;;;;;;;0.93;66.15;101583.56;2055172;28;20280;-71
2022/04/02 02:01:21;;;;;;;2.05;0.90;;;;;;;0.95;66.26;101587.16;2055354;28;20119;-71
2022/04/02 02:02:26;;;;;;;3.47;0.80;;;;;;;0.95;66.81;101581.88;2047241;28;20059;-71
2022/04/02 02:03:28;;;;;;;2.90;1.00;;;;;;;0.93;66.41;101591.50;2039590;28;47226;-71
2022/04/02 02:04:31;;;;;;;4.82;1.00;;;;;;;0.90;66.88;101583.53;2038582;28;46669;-72
2022/04/02 02:05:36;;;;;;;2.28;1.00;;;;;;;0.89;67.16;101585.25;2048448;28;24558;-71
2022/04/02 02:06:39;;;;;;;4.05;1.35;;;;;;;0.88;66.52;101587.81;2047255;28;20035;-71
2022/04/02 02:07:51;;;;;;;4.05;1.17;;;;;;;0.89;66.50;101587.00;2040252;28;20174;-71
2022/04/02 02:09:06;;;;;;;3.97;0.93;;;;;;;0.88;66.89;101583.47;2049739;28;20198;-71
2022/04/02 02:10:24;;;;;;;4.43;0.98;;;;;;;0.86;66.95;101593.09;2046857;28;20094;-72
2022/04/02 02:11:41;;;;;;;1.80;1.00;;;;;;;0.83;66.85;101587.72;2049436;28;20116;-72
2022/04/02 02:12:56;;;;;;;2.28;1.13;;;;;;;0.84;67.15;101588.59;2046869;28;20039;-70
2022/04/02 02:14:05;;;;;;;3.28;1.00;;;;;;;0.83;67.03;101603.53;2050647;28;20048;-72
2022/04/02 02:15:08;;;;;;;4.30;1.42;;;;;;;0.85;67.62;101586.03;2054754;28;20047;-71
2022/04/02 02:16:10;;;;;;;2.30;1.05;;;;;;;0.84;66.81;101583.34;2055637;28;20043;-72
2022/04/02 02:17:12;;;;;;;1.90;1.00;;;;;;;0.83;67.28;101587.72;2053725;28;46335;-71
2022/04/02 02:18:16;;;;;;;2.60;0.90;;;;;;;0.86;67.13;101592.16;2055485;28;20032;-71
2022/04/02 02:19:18;;;;;;;3.47;0.95;;;;;;;0.85;67.70;101595.69;2055967;28;45324;-71
2022/04/02 02:20:21;;;;;;;4.72;1.00;;;;;;;0.84;67.29;101594.75;2056937;28;20798;-71
2022/04/02 02:21:23;;;;;;;3.17;1.10;;;;;;;0.85;66.97;101587.78;2062814;28;24910;-71
2022/04/02 02:22:26;;;;;;;4.15;1.00;;;;;;;0.82;67.69;101591.19;2063397;28;20039;-71
2022/04/02 02:23:27;;;;;;;2.55;1.23;;;;;;;0.80;67.78;101598.16;2062952;28;43729;-72
2022/04/02 02:24:29;;;;;;;4.80;0.95;;;;;;;0.82;67.34;101592.94;2062872;28;46403;-71
2022/04/02 02:25:31;;;;;;;3.35;1.02;;;;;;;0.81;67.51;101586.78;2054391;28;20494;-72
2022/04/02 02:26:34;;;;;;;3.40;1.17;;;;;;;0.81;67.81;101591.16;2054209;28;45659;-72
2022/04/02 02:27:40;;;;;;;4.60;1.10;;;;;;;0.82;68.08;101585.03;2053935;28;20829;-72
2022/04/02 02:28:44;;;;;;;3.95;0.95;;;;;;;0.83;67.79;101592.13;2056942;28;20031;-71
2022/04/02 02:29:56;;;;;;;2.20;0.98;;;;;;;0.83;67.56;101587.72;2063315;28;20169;-71
2022/04/02 02:30:58;;;;;;;2.50;1.27;;;;;;;0.82;67.50;101587.69;2062984;28;20047;-71
2022/04/02 02:32:00;;;;;;;4.28;1.10;;;;;;;0.83;67.75;101586.84;2062025;28;45502;-71
2022/04/02 02:35:53;;;;;;;;;;;;;;;0.85;67.91;101590.41;2057740;28;20050;-71
2022/04/02 02:37:20;;;;;;;5.20;0.93;;;;;;;0.86;67.54;101592.16;2062308;28;19922;-71
2022/04/02 02:38:30;;;;;;;;;;;;;;;0.82;67.92;101590.31;2063756;28;20055;-71
2022/04/02 02:39:43;;;;;;;5.32;1.10;;;;;;;0.83;68.06;101592.13;2055203;28;19996;-72
2022/04/02 02:40:53;;;;;;;2.33;1.00;;;;;;;0.81;67.67;101594.69;2055201;28;20043;-72
2022/04/02 02:42:03;;;;;;;2.08;0.98;;;;;;;0.81;67.77;101599.06;2055968;28;20047;-71
2022/04/02 02:43:13;;;;;;;2.15;0.90;;;;;;;0.80;66.93;101589.38;2063399;28;20058;-71
2022/04/02 02:44:17;;;;;;;2.80;0.90;;;;;;;0.80;68.29;101600.81;2063193;28;20423;-71
2022/04/02 02:45:25;;;;;;;3.80;1.10;;;;;;;0.80;68.07;101598.16;2055156;28;20051;-71
2022/04/02 02:46:33;;;;;;;6.70;1.13;;;;;;;0.76;68.08;101602.47;2055843;28;20043;-71
2022/04/02 02:47:41;;;;;;;3.17;0.82;;;;;;;0.74;67.94;101598.91;2055042;28;20043;-72
2022/04/02 02:48:46;;;;;;;2.72;1.05;;;;;;;0.71;68.47;101600.56;2054872;28;20920;-72
2022/04/02 02:49:50;;;;;;;3.08;0.98;;;;;;;0.71;68.66;101603.19;2063110;28;20939;-71
2022/04/02 02:50:58;;;;;;;2.40;1.00;;;;;;;0.72;68.33;101603.25;2054620;28;20035;-71
2022/04/02 02:52:00;;;;;;;3.50;1.10;;;;;;;0.72;68.82;101600.59;2046668;28;20047;-71
2022/04/02 02:53:03;;;;;;;3.95;1.02;;;;;;;0.69;68.35;101605.78;2047717;28;20098;-71
2022/04/02 02:54:05;;;;;;;4.88;1.58;;;;;;;0.72;68.87;101599.72;2054101;28;47775;-71
2022/04/02 02:55:09;;;;;;;2.85;0.95;;;;;;;0.70;68.49;101602.31;2054950;28;20047;-72
2022/04/02 02:56:12;;;;;;;4.05;1.20;;;;;;;0.69;68.57;101604.91;2047010;28;20040;-72
2022/04/02 02:57:17;;;;;;;2.42;1.10;;;;;;;0.67;68.92;101606.59;2047075;28;20170;-71
2022/04/02 02:58:18;;;;;;;2.75;1.10;;;;;;;0.64;69.20;101607.38;2055724;28;20043;-72
2022/04/02 02:59:20;;;;;;;2.88;0.93;;;;;;;0.63;69.19;101604.69;2054848;28;20043;-71
2022/04/02 03:00:22;;;;;;;3.40;1.25;;;;;;;0.63;68.86;101609.97;2054947;28;20047;-70
2022/04/02 03:01:29;;;;;;;2.35;1.30;;;;;;;0.62;70.10;101608.22;2062904;28;20949;-71
2022/04/02 03:02:32;;;;;;;3.00;1.20;;;;;;;0.62;69.28;101613.47;2062990;28;20043;-71
2022/04/02 03:03:35;;;;;;;5.15;1.05;;;;;;;0.61;68.91;101606.41;2063645;28;20035;-71
2022/04/02 03:04:38;;;;;;;2.85;1.02;;;;;;;0.60;69.60;101602.00;2054926;28;20047;-71
2022/04/02 03:05:46;;;;;;;2.65;0.98;;;;;;;0.58;69.53;101609.88;2055962;28;20055;-71
2022/04/02 03:06:48;;;;;;;4.05;1.05;;;;;;;0.61;70.16;101609.97;2054802;28;20059;-70
2022/04/02 03:07:52;;;;;;;3.58;1.20;;;;;;;0.60;69.98;101609.91;2056126;28;20043;-72
2022/04/02 03:09:05;;;;;;;4.28;1.00;;;;;;;0.60;70.10;101604.66;2054853;28;20047;-71
2022/04/02 03:10:08;;;;;;;2.67;1.00;;;;;;;0.63;70.05;101609.97;2054061;28;46589;-72
2022/04/02 03:11:11;;;;;;;1.45;0.93;;;;;;;0.62;69.25;101601.19;2063126;28;20050;-72
2022/04/02 03:12:13;;;;;;;1.70;0.70;;;;;;;0.63;69.66;101610.91;2053589;28;20137;-71
2022/04/02 03:13:18;;;;;;;3.13;0.90;;;;;;;0.62;69.72;101609.09;2045640;28;20043;-71
2022/04/02 03:14:20;;;;;;;4.15;2.40;;;;;;;0.63;70.21;101610.91;2047396;28;20039;-72
2022/04/02 03:15:22;;;;;;;3.00;1.17;;;;;;;0.63;69.81;101607.34;2046862;28;20048;-72
2022/04/02 03:16:25;;;;;;;5.40;1.40;;;;;;;0.63;70.15;101607.34;2047946;28;20829;-71
2022/04/02 03:17:32;;;;;;;3.10;1.05;;;;;;;0.59;70.08;101616.91;2054101;28;20856;-71
2022/04/02 03:18:34;;;;;;;2.60;1.20;;;;;;;0.56;70.44;101607.19;2047646;28;20909;-72
2022/04/02 03:19:41;;;;;;;4.82;1.05;;;;;;;0.55;69.97;101612.41;2046527;28;20043;-72
2022/04/02 03:20:43;;;;;;;3.72;1.00;;;;;;;0.56;70.39;101608.94;2046319;28;41655;-72
2022/04/02 03:21:49;;;;;;;3.15;1.15;;;;;;;0.57;70.55;101622.16;2047052;28;20036;-71
2022/04/02 03:22:51;;;;;;;3.65;1.25;;;;;;;0.55;70.33;101613.28;2055354;28;20098;-71
2022/04/02 03:23:54;;;;;;;3.35;1.50;;;;;;;0.55;70.46;101609.78;2054618;28;20050;-72
2022/04/02 03:24:56;;;;;;;3.58;1.30;;;;;;;0.59;70.42;101611.63;2055167;28;20047;-72
2022/04/02 03:25:59;;;;;;;3.72;1.20;;;;;;;0.58;70.23;101620.41;2046753;28;20921;-71
2022/04/02 03:27:01;;;;;;;4.93;1.30;;;;;;;0.55;70.57;101613.28;2039894;28;20146;-71
2022/04/02 03:28:12;;;;;;;3.05;1.48;;;;;;;0.57;70.94;101614.25;2040244;28;21201;-72
2022/04/02 03:29:16;;;;;;;3.63;1.35;;;;;;;0.58;70.58;101612.50;2040463;28;20040;-71
2022/04/02 03:30:21;;;;;;;3.58;1.30;;;;;;;0.58;70.84;101620.41;2047248;28;20044;-71
2022/04/02 03:31:24;;;;;;;3.08;1.10;;;;;;;0.57;71.10;101611.63;2047688;28;20920;-71
2022/04/02 03:32:28;;;;;;;2.17;1.30;;;;;;;0.53;71.24;101619.38;2057549;28;20043;-71
2022/04/02 03:33:30;;;;;;;4.68;1.38;;;;;;;0.52;71.16;101622.84;2064436;28;43500;-71
2022/04/02 03:34:37;;;;;;;3.88;1.73;;;;;;;0.48;71.49;101616.59;2057021;28;20912;-71
2022/04/02 03:35:39;;;;;;;2.05;1.10;;;;;;;0.48;71.34;101626.25;2050442;28;20051;-72
2022/04/02 03:36:41;;;;;;;1.95;1.02;;;;;;;0.47;71.29;101614.81;2057350;28;20049;-72
2022/04/02 03:37:46;;;;;;;3.72;1.40;;;;;;;0.47;71.46;101627.13;2065578;28;21038;-71
2022/04/02 03:38:47;;;;;;;8.40;1.60;;;;;;;0.44;71.77;101624.38;2065902;28;20039;-72
2022/04/02 03:39:52;;;;;;;2.22;0.98;;;;;;;0.46;71.73;101631.47;2057114;28;20054;-71
2022/04/02 03:40:56;;;;;;;2.40;1.30;;;;;;;0.48;71.84;101634.16;2041866;28;20894;-71
2022/04/02 03:41:58;;;;;;;5.07;1.25;;;;;;;0.46;71.88;101627.94;2049641;28;44845;-71
2022/04/02 03:43:00;;;;;;;4.65;1.77;;;;;;;0.46;72.27;101628.81;2049214;28;20120;-72
2022/04/02 03:44:07;;;;;;;2.65;1.35;;;;;;;0.43;71.75;101643.66;2051174;28;20043;-72
2022/04/02 03:45:11;;;;;;;3.50;0.95;;;;;;;0.43;71.96;101633.13;2065650;28;20039;-72
2022/04/02 03:47:38;;;;;;;2.90;1.40;;;;;;;0.38;72.12;101636.50;2060076;28;20040;-71
2022/04/02 03:48:40;;;;;;;5.28;1.38;;;;;;;0.41;72.32;101637.44;2056319;28;45597;-72
2022/04/02 03:49:45;;;;;;;3.55;1.52;;;;;;;0.42;72.53;101631.34;2057207;28;20074;-71
2022/04/02 03:50:49;;;;;;;5.50;1.88;;;;;;;0.41;72.40;101640.97;2048989;28;20849;-71
2022/04/02 03:51:55;;;;;;;4.28;1.27;;;;;;;0.41;72.26;101634.81;2049895;28;20882;-72
2022/04/02 03:52:57;;;;;;;5.45;1.80;;;;;;;0.38;72.66;101631.25;2057517;28;20059;-72
2022/04/02 03:54:05;;;;;;;7.13;1.65;;;;;;;0.37;72.30;101639.97;2057286;28;20979;-71
2022/04/02 03:55:08;;;;;;;4.20;1.70;;;;;;;0.38;72.67;101635.63;2057470;28;20039;-72
2022/04/02 03:56:11;;;;;;;5.35;1.70;;;;;;;0.36;72.47;101640.84;2057422;28;20165;-71
2022/04/02 03:57:17;;;;;;;4.07;1.27;;;;;;;0.36;72.66;101640.84;2057943;28;20047;-72
2022/04/02 03:58:19;;;;;;;4.57;1.25;;;;;;;0.33;72.42;101637.22;2065369;28;20055;-71
2022/04/02 03:59:22;;;;;;;2.35;1.80;;;;;;;0.30;72.64;101638.00;2065201;28;20042;-71
2022/04/02 04:00:29;;;;;;;4.97;1.45;;;;;;;0.31;72.69;101634.53;2065462;28;20047;-72
2022/04/02 04:01:44;;;;;;;3.15;1.38;;;;;;;0.31;72.76;101639.81;2063859;28;20837;-71
2022/04/02 04:02:47;;;;;;;3.38;1.40;;;;;;;0.31;72.93;101645.09;2057670;28;20043;-71
2022/04/02 04:03:54;;;;;;;3.20;1.60;;;;;;;0.31;73.17;101650.34;2057354;28;21001;-71
2022/04/02 04:04:59;;;;;;;3.75;1.40;;;;;;;0.33;73.58;101651.28;2056536;28;44313;-72
2022/04/02 04:06:03;;;;;;;3.10;1.75;;;;;;;0.32;72.79;101648.59;2065308;28;20146;-71
2022/04/02 04:07:08;;;;;;;7.45;1.73;;;;;;;0.31;73.54;101652.09;2057152;28;20036;-71
2022/04/02 04:08:12;;;;;;;2.83;1.52;;;;;;;0.29;73.46;101649.41;2057817;28;20052;-69
2022/04/02 04:09:15;;;;;;;3.47;1.60;;;;;;;0.34;73.29;101660.06;2065299;28;20089;-72
2022/04/02 04:10:20;;;;;;;3.25;1.58;;;;;;;0.33;73.08;101648.66;2065437;28;20938;-71
2022/04/02 04:11:26;;;;;;;3.95;1.52;;;;;;;0.33;72.93;101664.44;2065231;28;20042;-71
2022/04/02 04:12:28;;;;;;;2.88;1.52;;;;;;;0.30;73.50;101659.09;2057605;28;20142;-72
2022/04/02 04:13:30;;;;;;;3.90;1.95;;;;;;;0.31;73.37;101654.72;2056680;28;36839;-71
2022/04/02 04:14:34;;;;;;;2.45;1.48;;;;;;;0.26;73.35;101657.22;2056862;28;20433;-72
2022/04/02 04:15:36;;;;;;;3.53;1.75;;;;;;;0.25;73.59;101651.88;2056775;28;23527;-72
2022/04/02 04:16:44;;;;;;;3.75;1.70;;;;;;;0.23;73.25;101657.09;2058127;28;20095;-72
2022/04/02 04:17:45;;;;;;;3.00;1.50;;;;;;;0.23;73.94;101662.38;2049146;28;20051;-72
2022/04/02 04:18:49;;;;;;;3.20;1.90;;;;;;;0.23;73.81;101657.09;2042376;28;20050;-71
2022/04/02 04:19:51;;;;;;;3.95;1.58;;;;;;;0.21;73.79;101664.06;2048926;28;24554;-72
2022/04/02 04:20:56;;;;;;;4.78;1.70;;;;;;;0.19;74.31;101663.13;2057335;28;20149;-71
2022/04/02 04:22:03;;;;;;;5.22;2.00;;;;;;;0.23;74.17;101659.75;2055547;28;20904;-71
2022/04/02 04:23:05;;;;;;;6.15;2.10;;;;;;;0.23;73.92;101667.63;2050546;28;20822;-72
2022/04/02 04:24:08;;;;;;;5.72;1.90;;;;;;;0.22;74.51;101660.59;2057486;28;20920;-72
2022/04/02 04:25:10;;;;;;;2.92;1.92;;;;;;;0.24;74.20;101664.16;2057873;28;20897;-72
2022/04/02 04:26:14;;;;;;;4.53;1.98;;;;;;;0.25;74.46;101665.06;2057567;28;20035;-71
2022/04/02 04:27:18;;;;;;;5.00;1.98;;;;;;;0.26;74.65;101666.84;2058147;28;20078;-71
2022/04/02 04:28:20;;;;;;;3.72;1.90;;;;;;;0.23;74.21;101669.38;2057121;28;20133;-71
2022/04/02 04:29:23;;;;;;;4.55;2.08;;;;;;;0.23;74.07;101667.63;2057447;28;20043;-72
2022/04/02 04:30:26;;;;;;;4.22;1.80;;;;;;;0.19;74.50;101671.03;2056874;28;20051;-71
2022/04/02 04:31:30;;;;;;;4.45;2.00;;;;;;;0.18;75.15;101670.16;2057204;28;20162;-71
2022/04/02 04:32:33;;;;;;;3.70;1.80;;;;;;;0.15;75.00;101674.44;2056784;28;26434;-71
2022/04/02 04:33:37;;;;;;;2.80;1.88;;;;;;;0.13;75.31;101674.38;2057355;28;20043;-71
2022/04/02 04:34:39;;;;;;;6.35;2.40;;;;;;;0.13;74.92;101676.13;2056603;28;42690;-70
2022/04/02 04:35:41;;;;;;;5.40;2.78;;;;;;;0.13;75.35;101679.63;2064214;28;45836;-71
2022/04/02 04:36:43;;;;;;;3.78;1.98;;;;;;;0.12;76.05;101669.94;2064994;28;45362;-71
2022/04/02 04:37:46;;;;;;;5.95;1.98;;;;;;;0.10;75.47;101676.91;2056490;28;20812;-71
2022/04/02 04:38:54;;;;;;;5.13;2.63;;;;;;;0.10;75.54;101683.91;2050030;28;20039;-71
2022/04/02 04:39:57;;;;;;;5.53;1.88;;;;;;;0.15;76.50;101674.44;2057436;28;20961;-71
2022/04/02 04:40:59;;;;;;;6.55;2.05;;;;;;;0.16;75.84;101678.81;2048857;28;20052;-72
2022/04/02 04:42:02;;;;;;;6.63;2.40;;;;;;;0.15;75.98;101683.22;2041437;28;20033;-71
2022/04/02 04:43:07;;;;;;;2.78;1.73;;;;;;;0.14;76.10;101681.44;2048173;28;20050;-71
2022/04/02 04:44:14;;;;;;;3.85;1.95;;;;;;;0.16;76.29;101684.09;2048198;28;20135;-71
2022/04/02 04:45:17;;;;;;;4.18;2.40;;;;;;;0.17;76.09;101681.50;2046621;28;20064;-71
2022/04/02 04:46:21;;;;;;;3.58;2.00;;;;;;;0.15;76.01;101691.09;2056041;28;20070;-72
2022/04/02 04:47:26;;;;;;;4.78;2.38;;;;;;;0.11;76.16;101688.34;2056421;28;20146;-71
2022/04/02 04:48:28;;;;;;;6.80;2.30;;;;;;;0.09;76.03;101692.66;2055200;28;47087;-71
2022/04/02 04:49:33;;;;;;;5.18;2.45;;;;;;;0.10;76.95;101691.81;2056031;28;20122;-72
2022/04/02 04:50:39;;;;;;;3.53;2.10;;;;;;;0.11;77.02;101694.50;2048521;28;20869;-71
2022/04/02 04:51:41;;;;;;;6.93;2.33;;;;;;;0.07;76.79;101691.69;2055586;28;20134;-72
2022/04/02 04:52:42;;;;;;;4.85;2.25;;;;;;;0.08;76.99;101688.25;2062786;28;46013;-71
2022/04/02 04:53:46;;;;;;;4.78;2.40;;;;;;;0.09;77.03;101692.66;2055619;28;20841;-72
2022/04/02 04:54:48;;;;;;;6.72;2.15;;;;;;;0.06;76.67;101700.47;2056195;28;20055;-71
2022/04/02 04:55:53;;;;;;;6.50;2.33;;;;;;;0.07;77.32;101697.88;2054471;28;20055;-72
2022/04/02 04:56:57;;;;;;;7.07;2.63;;;;;;;0.05;76.96;101703.94;2056618;28;20896;-72
2022/04/02 04:58:00;;;;;;;4.70;2.13;;;;;;;0.01;77.09;101699.41;2055977;28;20185;-72
2022/04/02 04:59:05;;;;;;;6.45;2.22;;;;;;;0.07;77.43;101699.59;2056616;28;20909;-71
2022/04/02 05:00:08;;;;;;;4.07;2.13;;;;;;;0.05;77.38;101706.56;2055815;28;20833;-71
2022/04/02 05:01:12;;;;;;;4.95;2.47;;;;;;;0.07;77.45;101707.50;2047553;28;20110;-71
2022/04/02 05:02:14;;;;;;;4.78;2.55;;;;;;;0.08;77.67;101710.19;2055197;28;45148;-71
2022/04/02 05:03:16;;;;;;;5.65;2.33;;;;;;;0.09;78.02;101704.09;2055538;28;20133;-71
2022/04/02 05:04:21;;;;;;;5.80;2.80;;;;;;;0.10;77.42;101716.41;2056634;28;20202;-71
2022/04/02 05:05:31;;;;;;;5.85;2.40;;;;;;;0.10;77.48;101699.72;2055795;28;20901;-72
2022/04/02 05:06:37;;;;;;;7.43;2.38;;;;;;;0.13;78.06;101710.34;2056515;28;37651;-72
2022/04/02 05:07:40;;;;;;;4.40;2.10;;;;;;;0.11;78.02;101707.66;2055186;28;31448;-71
2022/04/02 05:08:42;;;;;;;4.30;2.25;;;;;;;0.14;78.00;101710.41;2055766;28;20040;-71
2022/04/02 05:09:45;;;;;;;5.25;2.47;;;;;;;0.09;77.71;101711.06;2047822;28;33464;-72